createdAt,value
2018-11-14T00:02:18.593Z,7.27
2018-11-14T00:04:48.897Z,7.60
2018-11-14T00:07:19.162Z,7.50
2018-11-14T00:09:49.437Z,7.30
2018-11-14T00:12:19.690Z,6.93
2018-11-14T00:14:49.962Z,7.87
2018-11-14T00:17:20.338Z,8.20
2018-11-14T00:19:50.661Z,8.30
2018-11-14T00:22:20.922Z,7.67
2018-11-14T00:24:51.250Z,7.87
2018-11-14T00:27:21.475Z,8.13
2018-11-14T00:29:51.742Z,7.77
2018-11-14T00:32:22.024Z,6.70
2018-11-14T00:34:52.427Z,7.60
2018-11-14T00:37:22.585Z,6.67
2018-11-14T00:39:52.880Z,7.20
2018-11-14T00:42:23.119Z,6.40
2018-11-14T00:44:53.439Z,7.50
2018-11-14T00:47:23.747Z,7.13
2018-11-14T00:49:54.062Z,7.00
2018-11-14T00:52:24.310Z,6.37
2018-11-14T00:54:54.631Z,6.77
2018-11-14T00:57:24.878Z,6.37
2018-11-14T00:59:55.208Z,7.30
2018-11-14T01:02:25.431Z,5.87
2018-11-14T01:04:55.811Z,6.90
2018-11-14T01:07:26.100Z,7.10
2018-11-14T01:09:56.367Z,6.20
2018-11-14T01:12:26.651Z,6.80
2018-11-14T01:14:56.938Z,7.33
2018-11-14T01:17:27.243Z,7.47
2018-11-14T01:19:57.440Z,7.23
2018-11-14T01:22:27.686Z,6.43
2018-11-14T01:24:57.967Z,6.43
2018-11-14T01:27:28.279Z,5.93
2018-11-14T01:29:58.518Z,6.40
2018-11-14T01:32:28.965Z,5.83
2018-11-14T01:34:59.187Z,5.20
2018-11-14T01:37:29.434Z,5.83
2018-11-14T01:39:59.658Z,5.90
2018-11-14T01:42:29.902Z,6.03
2018-11-14T01:45:08.062Z,5.53
2018-11-14T01:47:38.281Z,5.70
2018-11-14T01:50:10.059Z,5.80
2018-11-14T01:52:40.578Z,5.20
2018-11-14T01:55:13.138Z,5.13
2018-11-14T01:57:43.380Z,5.63
2018-11-14T02:00:19.204Z,6.17
2018-11-14T02:02:49.452Z,5.60
2018-11-14T02:05:19.757Z,6.13
2018-11-14T02:07:49.986Z,5.57
2018-11-14T02:10:21.029Z,6.20
2018-11-14T02:12:51.266Z,5.43
2018-11-14T02:15:22.745Z,5.30
2018-11-14T02:17:53.546Z,5.80
2018-11-14T02:20:23.798Z,5.20
2018-11-14T02:22:54.073Z,5.10
2018-11-14T02:25:24.314Z,4.80
2018-11-14T02:27:54.597Z,4.97
2018-11-14T02:30:25.069Z,5.00
2018-11-14T02:32:55.338Z,4.93
2018-11-14T02:35:25.594Z,5.83
2018-11-14T02:37:55.854Z,5.40
2018-11-14T02:40:26.116Z,4.60
2018-11-14T02:42:56.392Z,5.10
2018-11-14T02:45:26.635Z,4.27
2018-11-14T02:47:56.903Z,4.60
2018-11-14T02:50:27.158Z,5.03
2018-11-14T02:52:57.471Z,4.90
2018-11-14T02:55:27.719Z,4.13
2018-11-14T02:57:57.990Z,3.83
2018-11-14T03:00:28.255Z,3.73
2018-11-14T03:02:58.516Z,4.03
2018-11-14T03:05:28.758Z,3.23
2018-11-14T03:07:59.037Z,4.57
2018-11-14T03:10:29.333Z,3.90
2018-11-14T03:12:59.560Z,3.73
2018-11-14T03:15:29.813Z,3.90
2018-11-14T03:18:00.082Z,4.40
2018-11-14T03:20:30.354Z,4.60
2018-11-14T03:23:00.660Z,4.07
2018-11-14T03:25:30.934Z,3.80
2018-11-14T03:28:01.240Z,4.10
2018-11-14T03:30:31.515Z,4.27
2018-11-14T03:33:01.836Z,3.47
2018-11-14T03:35:37.440Z,4.17
2018-11-14T03:38:07.748Z,4.00
2018-11-14T03:40:38.134Z,3.50
2018-11-14T03:43:08.447Z,3.60
2018-11-14T03:45:38.745Z,3.50
2018-11-14T03:48:09.049Z,3.13
2018-11-14T03:50:39.336Z,3.63
2018-11-14T03:53:09.623Z,3.50
2018-11-14T03:55:39.958Z,3.20
2018-11-14T03:58:10.307Z,3.07
2018-11-14T04:00:40.551Z,3.23
2018-11-14T04:03:10.862Z,3.07
2018-11-14T04:05:41.175Z,3.60
2018-11-14T04:08:11.463Z,3.27
2018-11-14T04:10:41.731Z,2.90
2018-11-14T04:13:12.043Z,3.10
2018-11-14T04:15:42.376Z,3.50
2018-11-14T04:18:12.717Z,3.90
2018-11-14T04:20:42.985Z,3.80
2018-11-14T04:23:13.300Z,3.90
2018-11-14T04:25:43.570Z,4.00
2018-11-14T04:28:13.840Z,4.17
2018-11-14T04:30:44.090Z,3.90
2018-11-14T04:33:14.602Z,4.43
2018-11-14T04:35:44.850Z,4.83
2018-11-14T04:38:15.130Z,5.00
2018-11-14T04:40:45.404Z,4.47
2018-11-14T04:43:15.648Z,3.97
2018-11-14T04:45:45.935Z,4.00
2018-11-14T04:48:16.320Z,3.70
2018-11-14T04:50:46.526Z,3.97
2018-11-14T04:53:16.770Z,4.43
2018-11-14T04:55:47.045Z,3.73
2018-11-14T04:58:17.299Z,3.60
2018-11-14T05:00:47.572Z,3.97
2018-11-14T05:03:17.825Z,4.30
2018-11-14T05:05:48.102Z,4.60
2018-11-14T05:08:18.344Z,4.63
2018-11-14T05:10:48.627Z,3.97
2018-11-14T05:13:18.875Z,4.23
2018-11-14T05:15:49.181Z,4.33
2018-11-14T05:18:19.421Z,4.23
2018-11-14T05:20:49.654Z,4.10
2018-11-14T05:23:19.907Z,3.83
2018-11-14T05:25:50.150Z,4.13
2018-11-14T05:28:20.393Z,3.77
2018-11-14T05:30:50.639Z,4.40
2018-11-14T05:33:20.904Z,4.80
2018-11-14T05:35:51.169Z,3.70
2018-11-14T05:38:21.393Z,3.27
2018-11-14T05:40:51.635Z,3.23
2018-11-14T05:43:21.853Z,3.20
2018-11-14T05:45:52.098Z,2.87
2018-11-14T05:48:22.311Z,2.87
2018-11-14T05:50:52.572Z,2.93
2018-11-14T05:53:22.882Z,3.10
2018-11-14T05:55:53.105Z,2.73
2018-11-14T05:58:23.374Z,2.77
2018-11-14T06:00:53.613Z,3.23
2018-11-14T06:03:23.882Z,2.47
2018-11-14T06:05:54.222Z,2.80
2018-11-14T06:08:24.508Z,2.40
2018-11-14T06:10:54.747Z,2.77
2018-11-14T06:13:25.061Z,3.23
2018-11-14T06:15:55.359Z,2.90
2018-11-14T06:18:25.621Z,3.67
2018-11-14T06:20:55.935Z,3.03
2018-11-14T06:23:26.245Z,2.77
2018-11-14T06:25:56.495Z,3.03
2018-11-14T06:28:26.751Z,2.90
2018-11-14T06:30:57.091Z,3.13
2018-11-14T06:33:27.346Z,3.13
2018-11-14T06:35:57.620Z,3.40
2018-11-14T06:38:27.870Z,3.40
2018-11-14T06:40:58.146Z,3.03
2018-11-14T06:43:28.417Z,4.23
2018-11-14T06:45:58.698Z,3.10
2018-11-14T06:48:28.954Z,3.37
2018-11-14T06:50:59.229Z,2.73
2018-11-14T06:53:29.582Z,3.40
2018-11-14T06:55:59.843Z,2.90
2018-11-14T06:58:30.166Z,3.57
2018-11-14T07:01:00.428Z,2.63
2018-11-14T07:03:30.754Z,3.60
2018-11-14T07:06:01.165Z,3.07
2018-11-14T07:08:31.256Z,3.30
2018-11-14T07:11:01.639Z,3.20
2018-11-14T07:13:31.838Z,2.90
2018-11-14T07:16:02.147Z,3.80
2018-11-14T07:18:32.534Z,3.23
2018-11-14T07:21:02.820Z,3.40
2018-11-14T07:23:33.133Z,3.30
2018-11-14T07:26:03.363Z,3.60
2018-11-14T07:28:33.630Z,3.63
2018-11-14T07:31:04.027Z,3.70
2018-11-14T07:33:34.339Z,3.80
2018-11-14T07:36:04.610Z,4.50
2018-11-14T07:38:40.190Z,4.37
2018-11-14T07:41:13.486Z,4.30
2018-11-14T07:43:44.166Z,3.83
2018-11-14T07:46:14.929Z,4.00
2018-11-14T07:48:46.198Z,3.43
2018-11-14T07:51:16.451Z,4.23
2018-11-14T07:53:46.694Z,3.53
2018-11-14T07:56:16.965Z,3.77
2018-11-14T07:58:47.217Z,4.70
2018-11-14T08:01:17.715Z,4.20
2018-11-14T08:03:48.043Z,4.73
2018-11-14T08:06:18.349Z,4.73
2018-11-14T08:08:49.459Z,4.80
2018-11-14T08:11:19.722Z,4.47
2018-11-14T08:13:50.348Z,4.50
2018-11-14T08:16:20.662Z,3.83
2018-11-14T08:18:50.939Z,4.10
2018-11-14T08:21:21.158Z,4.57
2018-11-14T08:23:51.421Z,4.20
2018-11-14T08:26:21.702Z,4.30
2018-11-14T08:28:52.482Z,6.10
2018-11-14T08:31:22.724Z,5.33
2018-11-14T08:33:53.759Z,4.80
2018-11-14T08:36:24.003Z,4.47
2018-11-14T08:38:54.245Z,3.10
2018-11-14T08:41:24.486Z,2.80
2018-11-14T08:43:54.737Z,3.03
2018-11-14T08:46:24.954Z,3.53
2018-11-14T08:48:55.214Z,3.70
2018-11-14T08:51:25.438Z,4.10
2018-11-14T08:53:55.663Z,4.47
2018-11-14T08:56:25.881Z,4.50
2018-11-14T08:58:56.113Z,4.57
2018-11-14T09:01:26.336Z,4.80
2018-11-14T09:03:56.600Z,5.60
2018-11-14T09:06:26.892Z,4.73
2018-11-14T09:08:58.427Z,4.10
2018-11-14T09:11:28.731Z,4.60
2018-11-14T09:13:58.959Z,4.23
2018-11-14T09:16:29.210Z,4.63
2018-11-14T09:18:59.446Z,3.90
2018-11-14T09:21:29.770Z,4.40
2018-11-14T09:24:00.016Z,5.20
2018-11-14T09:26:30.250Z,5.43
2018-11-14T09:29:00.528Z,5.10
2018-11-14T09:31:30.747Z,5.27
2018-11-14T09:34:00.988Z,4.93
2018-11-14T09:36:31.285Z,5.43
2018-11-14T09:39:01.559Z,5.40
2018-11-14T09:41:31.860Z,5.40
2018-11-14T09:44:02.081Z,6.17
2018-11-14T09:46:32.343Z,6.23
2018-11-14T09:49:02.628Z,5.73
2018-11-14T09:51:33.001Z,5.13
2018-11-14T09:54:03.549Z,5.67
2018-11-14T09:56:33.940Z,6.37
2018-11-14T09:59:04.149Z,5.57
2018-11-14T10:01:34.387Z,5.27
2018-11-14T10:04:05.090Z,5.00
2018-11-14T10:06:35.334Z,5.43
2018-11-14T10:09:10.381Z,4.67
2018-11-14T10:11:40.674Z,4.90
2018-11-14T10:14:11.695Z,4.87
2018-11-14T10:16:41.962Z,4.00
2018-11-14T10:19:12.367Z,4.37
2018-11-14T10:21:42.672Z,4.30
2018-11-14T10:24:12.838Z,3.80
2018-11-14T10:26:43.104Z,3.00
2018-11-14T10:29:13.367Z,2.93
2018-11-14T10:31:43.689Z,3.10
2018-11-14T10:34:13.823Z,2.90
2018-11-14T10:36:44.067Z,3.07
2018-11-14T10:39:14.320Z,2.80
2018-11-14T10:41:44.634Z,3.20
2018-11-14T10:44:14.883Z,3.10
2018-11-14T10:46:45.110Z,2.57
2018-11-14T10:49:15.341Z,2.80
2018-11-14T10:51:45.567Z,2.60
2018-11-14T10:54:15.810Z,2.80
2018-11-14T10:56:46.024Z,3.10
2018-11-14T10:59:16.267Z,2.97
2018-11-14T11:01:51.729Z,2.63
2018-11-14T11:04:27.168Z,2.77
2018-11-14T11:07:02.587Z,2.53
2018-11-14T11:09:38.230Z,2.90
2018-11-14T11:12:13.603Z,2.87
2018-11-14T11:15:46.915Z,2.67
2018-11-14T11:18:18.151Z,2.47
2018-11-14T11:20:48.502Z,2.93
2018-11-14T11:23:18.789Z,1.90
2018-11-14T11:25:49.046Z,2.00
2018-11-14T11:28:19.382Z,2.63
2018-11-14T11:30:49.673Z,2.63
2018-11-14T11:33:19.901Z,2.17
2018-11-14T11:35:50.178Z,1.70
2018-11-14T11:38:20.510Z,1.90
2018-11-14T11:40:50.697Z,1.73
2018-11-14T11:43:20.966Z,1.50
2018-11-14T11:45:51.230Z,1.63
2018-11-14T11:48:21.474Z,2.50
2018-11-14T11:50:51.813Z,1.60
2018-11-14T11:53:22.015Z,1.50
2018-11-14T11:55:52.301Z,1.90
2018-11-14T11:58:22.555Z,1.80
2018-11-14T12:00:52.870Z,1.80
2018-11-14T12:03:23.071Z,2.03
2018-11-14T12:05:53.403Z,1.50
2018-11-14T12:08:23.594Z,1.60
2018-11-14T12:10:53.939Z,2.03
2018-11-14T12:13:24.155Z,1.60
2018-11-14T12:15:54.401Z,1.70
2018-11-14T12:18:24.709Z,1.63
2018-11-14T12:20:54.950Z,1.30
2018-11-14T12:23:25.192Z,1.57
2018-11-14T12:25:55.422Z,1.53
2018-11-14T12:28:25.632Z,1.83
2018-11-14T12:30:56.044Z,1.70
2018-11-14T12:33:26.127Z,1.90
2018-11-14T12:35:56.379Z,1.70
2018-11-14T12:38:26.630Z,1.30
2018-11-14T12:40:56.875Z,1.60
2018-11-14T12:43:27.126Z,1.63
2018-11-14T12:45:57.379Z,1.83
2018-11-14T12:48:27.613Z,1.37
2018-11-14T12:50:57.848Z,1.70
2018-11-14T12:53:28.098Z,1.83
2018-11-14T12:55:58.330Z,1.50
2018-11-14T12:58:28.589Z,1.90
2018-11-14T13:00:58.802Z,1.90
2018-11-14T13:03:29.126Z,2.00
2018-11-14T13:05:59.363Z,1.83
2018-11-14T13:08:29.595Z,1.57
2018-11-14T13:10:59.845Z,1.60
2018-11-14T13:13:35.310Z,1.50
2018-11-14T13:16:06.038Z,1.73
2018-11-14T13:18:36.406Z,1.50
2018-11-14T13:21:07.582Z,1.80
2018-11-14T13:23:37.837Z,1.53
2018-11-14T13:26:08.608Z,1.70
2018-11-14T13:28:39.281Z,1.43
2018-11-14T13:31:09.494Z,1.40
2018-11-14T13:33:40.006Z,1.40
2018-11-14T13:36:10.225Z,1.57
2018-11-14T13:38:40.477Z,1.40
2018-11-14T13:41:10.705Z,1.20
2018-11-14T13:43:40.942Z,1.57
2018-11-14T13:46:11.161Z,1.47
2018-11-14T13:48:41.456Z,1.30
2018-11-14T13:51:11.761Z,1.47
2018-11-14T13:53:41.870Z,1.90
2018-11-14T13:56:12.098Z,1.60
2018-11-14T13:58:42.343Z,1.57
2018-11-14T14:01:12.616Z,1.57
2018-11-14T14:03:42.830Z,1.77
2018-11-14T14:06:13.109Z,1.50
2018-11-14T14:08:43.430Z,1.60
2018-11-14T14:11:13.648Z,3.80
2018-11-14T14:13:49.207Z,4.17
2018-11-14T14:16:19.511Z,5.47
2018-11-14T14:18:49.708Z,7.13
2018-11-14T14:21:19.984Z,7.70
2018-11-14T14:23:50.229Z,6.57
2018-11-14T14:26:20.443Z,7.50
2018-11-14T14:28:50.685Z,6.80
2018-11-14T14:31:20.909Z,6.50
2018-11-14T14:33:51.203Z,7.27
2018-11-14T14:36:21.911Z,6.53
2018-11-14T14:38:52.168Z,7.87
2018-11-14T14:41:22.394Z,8.83
2018-11-14T14:43:52.786Z,9.97
2018-11-14T14:46:23.073Z,8.47
2018-11-14T14:48:53.390Z,10.30
2018-11-14T14:51:23.564Z,9.57
2018-11-14T14:53:53.820Z,9.80
2018-11-14T14:56:24.033Z,10.33
2018-11-14T14:58:54.285Z,9.50
2018-11-14T15:01:24.525Z,10.77
2018-11-14T15:03:54.776Z,10.70
2018-11-14T15:06:25.005Z,10.20
2018-11-14T15:08:55.267Z,11.83
2018-11-14T15:11:25.511Z,11.43
2018-11-14T15:13:55.766Z,11.47
2018-11-14T15:16:26.061Z,11.10
2018-11-14T15:18:56.403Z,11.40
2018-11-14T15:21:26.671Z,11.40
2018-11-14T15:23:56.954Z,12.83
2018-11-14T15:26:27.299Z,11.97
2018-11-14T15:28:57.682Z,11.60
2018-11-14T15:31:27.965Z,12.10
2018-11-14T15:33:58.634Z,12.67
2018-11-14T15:36:29.699Z,13.40
2018-11-14T15:39:00.017Z,13.43
2018-11-14T15:41:30.294Z,12.97
2018-11-14T15:44:00.593Z,12.60
2018-11-14T15:46:30.855Z,15.03
2018-11-14T15:49:01.142Z,13.13
2018-11-14T15:51:31.495Z,12.23
2018-11-14T15:54:01.923Z,11.67
2018-11-14T15:56:32.191Z,11.63
2018-11-14T15:59:02.467Z,9.30
2018-11-14T16:01:32.730Z,12.47
2018-11-14T16:04:03.014Z,11.97
2018-11-14T16:06:33.351Z,12.43
2018-11-14T16:09:03.904Z,15.67
2018-11-14T16:11:34.155Z,14.33
2018-11-14T16:14:04.740Z,14.63
2018-11-14T16:16:35.007Z,15.23
2018-11-14T16:19:05.435Z,15.07
2018-11-14T16:21:35.718Z,14.83
2018-11-14T16:24:06.099Z,14.53
2018-11-14T16:26:36.326Z,13.33
2018-11-14T16:29:06.859Z,15.20
2018-11-14T16:31:37.151Z,14.07
2018-11-14T16:34:07.388Z,13.27
2018-11-14T16:36:37.623Z,10.83
2018-11-14T16:39:11.326Z,7.47
2018-11-14T16:41:41.558Z,7.90
2018-11-14T16:44:11.825Z,6.57
2018-11-14T16:46:42.050Z,7.53
2018-11-14T16:49:12.393Z,8.20
2018-11-14T16:51:42.659Z,9.47
2018-11-14T16:54:12.922Z,10.03
2018-11-14T16:56:43.174Z,10.13
2018-11-14T16:59:13.408Z,7.97
2018-11-14T17:01:43.652Z,8.10
2018-11-14T17:04:13.896Z,9.27
2018-11-14T17:06:44.150Z,10.87
2018-11-14T17:09:14.478Z,8.43
2018-11-14T17:11:44.726Z,9.20
2018-11-14T17:14:15.021Z,8.70
2018-11-14T17:16:45.246Z,8.07
2018-11-14T17:19:15.491Z,7.73
2018-11-14T17:21:48.654Z,7.70
2018-11-14T17:24:18.899Z,7.33
2018-11-14T17:26:49.166Z,7.97
2018-11-14T17:29:19.417Z,7.37
2018-11-14T17:31:49.899Z,8.57
2018-11-14T17:34:20.251Z,8.10
2018-11-14T17:36:50.589Z,7.67
2018-11-14T17:39:20.899Z,7.50
2018-11-14T17:41:51.263Z,6.47
2018-11-14T17:44:21.457Z,6.83
2018-11-14T17:46:51.791Z,7.37
2018-11-14T17:49:22.038Z,6.80
2018-11-14T17:51:52.343Z,5.73
2018-11-14T17:54:22.719Z,6.20
2018-11-14T17:56:53.298Z,6.10
2018-11-14T17:59:23.578Z,6.37
2018-11-14T18:01:53.891Z,7.37
2018-11-14T18:04:24.144Z,7.13
2018-11-14T18:06:54.857Z,7.37
2018-11-14T18:09:25.106Z,7.10
2018-11-14T18:11:55.502Z,7.57
2018-11-14T18:14:25.844Z,7.17
2018-11-14T18:16:56.101Z,7.33
2018-11-14T18:19:26.314Z,7.23
2018-11-14T18:21:56.546Z,7.40
2018-11-14T18:24:26.889Z,8.23
2018-11-14T18:26:57.214Z,7.80
2018-11-14T18:29:28.651Z,7.67
2018-11-14T18:31:58.898Z,8.37
2018-11-14T18:34:29.137Z,8.20
2018-11-14T18:36:59.657Z,9.33
2018-11-14T18:39:31.466Z,8.47
2018-11-14T18:42:02.924Z,8.27
2018-11-14T18:44:34.130Z,10.97
2018-11-14T18:47:04.383Z,10.97
2018-11-14T18:49:34.716Z,9.70
2018-11-14T18:52:05.025Z,10.17
2018-11-14T18:54:37.092Z,8.73
2018-11-14T18:57:08.191Z,10.20
2018-11-14T18:59:38.717Z,10.03
2018-11-14T19:02:08.985Z,9.03
2018-11-14T19:04:39.189Z,8.70
2018-11-14T19:07:09.421Z,10.77
2018-11-14T19:09:39.657Z,9.43
2018-11-14T19:12:09.906Z,8.13
2018-11-14T19:14:40.137Z,9.33
2018-11-14T19:17:10.439Z,9.10
2018-11-14T19:19:46.002Z,9.53
2018-11-14T19:22:16.286Z,10.30
2018-11-14T19:24:46.607Z,9.40
2018-11-14T19:27:16.853Z,10.67
2018-11-14T19:29:47.334Z,8.83
2018-11-14T19:32:17.824Z,9.23
2018-11-14T19:34:48.088Z,9.37
2018-11-14T19:37:18.402Z,7.73
2018-11-14T19:39:48.640Z,8.50
2018-11-14T19:42:18.914Z,9.50
2018-11-14T19:44:49.178Z,8.17
2018-11-14T19:47:19.466Z,7.97
2018-11-14T19:49:49.790Z,9.07
2018-11-14T19:52:20.059Z,8.93
2018-11-14T19:54:50.321Z,10.23
2018-11-14T19:57:20.615Z,10.30
2018-11-14T19:59:50.965Z,10.63
2018-11-14T20:02:21.273Z,11.73
2018-11-14T20:04:51.762Z,9.50
2018-11-14T20:07:22.042Z,11.30
2018-11-14T20:09:52.300Z,10.93
2018-11-14T20:12:22.838Z,9.97
2018-11-14T20:14:53.223Z,10.90
2018-11-14T20:17:23.550Z,11.10
2018-11-14T20:19:53.810Z,10.70
2018-11-14T20:22:24.083Z,9.30
2018-11-14T20:24:54.340Z,9.63
2018-11-14T20:27:24.765Z,9.93
2018-11-14T20:29:55.009Z,11.97
2018-11-14T20:32:25.323Z,10.93
2018-11-14T20:34:55.571Z,9.20
2018-11-14T20:37:26.063Z,10.73
2018-11-14T20:39:56.299Z,9.17
2018-11-14T20:42:26.579Z,10.00
2018-11-14T20:44:56.857Z,8.60
2018-11-14T20:47:27.113Z,9.83
2018-11-14T20:49:57.391Z,9.43
2018-11-14T20:52:27.662Z,10.03
2018-11-14T20:54:57.915Z,9.00
2018-11-14T20:57:28.174Z,9.13
2018-11-14T20:59:58.454Z,9.30
2018-11-14T21:02:28.724Z,10.23
2018-11-14T21:04:58.995Z,8.60
2018-11-14T21:07:29.287Z,8.93
2018-11-14T21:09:59.538Z,9.27
2018-11-14T21:12:29.795Z,9.57
2018-11-14T21:15:00.135Z,10.47
2018-11-14T21:17:30.315Z,9.90
2018-11-14T21:20:00.550Z,9.73
2018-11-14T21:22:31.415Z,9.57
2018-11-14T21:25:01.658Z,9.50
2018-11-14T21:27:31.878Z,9.87
2018-11-14T21:30:02.420Z,9.50
2018-11-14T21:32:32.646Z,9.83
2018-11-14T21:35:02.990Z,9.60
2018-11-14T21:37:33.222Z,9.83
2018-11-14T21:40:03.551Z,9.27
2018-11-14T21:42:33.780Z,8.90
2018-11-14T21:45:04.022Z,11.43
2018-11-14T21:47:39.618Z,13.00
2018-11-14T21:50:09.884Z,12.37
2018-11-14T21:52:40.238Z,13.33
2018-11-14T21:55:11.215Z,12.93
2018-11-14T21:57:41.626Z,12.00
2018-11-14T22:00:16.765Z,11.73
2018-11-14T22:02:48.524Z,11.60
2018-11-14T22:05:18.850Z,11.53
2018-11-14T22:07:49.090Z,10.90
2018-11-14T22:10:20.644Z,10.93
2018-11-14T22:12:51.150Z,10.20
2018-11-14T22:15:22.631Z,11.43
2018-11-14T22:17:53.011Z,10.67
2018-11-14T22:20:24.532Z,10.20
2018-11-14T22:22:54.808Z,9.93
2018-11-14T22:25:25.954Z,10.73
2018-11-14T22:27:56.466Z,11.00
2018-11-14T22:30:28.368Z,10.83
2018-11-14T22:32:58.615Z,9.93
2018-11-14T22:35:30.090Z,9.93
2018-11-14T22:38:00.341Z,9.97
2018-11-14T22:40:31.611Z,10.67
2018-11-14T22:43:01.867Z,10.53
2018-11-14T22:45:33.077Z,11.23
2018-11-14T22:48:03.399Z,9.03
2018-11-14T22:50:33.750Z,11.60
2018-11-14T22:53:04.014Z,9.90
2018-11-14T22:55:34.308Z,8.03
2018-11-14T22:58:04.559Z,8.43
2018-11-14T23:00:39.946Z,8.23
2018-11-14T23:03:10.254Z,10.57
2018-11-14T23:05:40.538Z,9.37
2018-11-14T23:08:11.798Z,8.97
2018-11-14T23:10:42.072Z,7.97
2018-11-14T23:13:12.318Z,7.70
2018-11-14T23:15:42.723Z,9.17
2018-11-14T23:18:12.898Z,8.63
2018-11-14T23:20:43.170Z,9.17
2018-11-14T23:23:13.507Z,8.50
2018-11-14T23:25:43.704Z,8.53
2018-11-14T23:28:13.955Z,7.63
2018-11-14T23:30:44.221Z,8.43
2018-11-14T23:33:14.465Z,7.87
2018-11-14T23:35:44.753Z,8.03
2018-11-14T23:38:14.976Z,7.87
2018-11-14T23:40:45.227Z,7.57
2018-11-14T23:43:15.499Z,8.83
2018-11-14T23:45:45.795Z,9.23
2018-11-14T23:48:16.065Z,9.77
2018-11-14T23:50:46.371Z,9.03
2018-11-14T23:53:16.614Z,9.27
2018-11-14T23:55:46.886Z,7.80
2018-11-14T23:58:17.135Z,8.63
